Latest Weather Observations for Gannett Cay

IDQ60801

Issued at 4:05 pm EST Thursday 2 October 2014 (issued every 30 minutes, with the page automatically refreshed every 10 minutes)

About weather observations | Map of weather stations | Latest weather observations for QLD | Other Formats
Station Details ID: 200831 Name: GANNET CAY Lat: -21.98 Lon: 152.47 Height: 2.3 m
Data from the previous 72 hours. | See also: Recent months for locations in Queensland
Date/Time
EST
Temp
°C
App
Temp
°C
Dew
Point
Rel
Hum
%
Delta-T
°C
Wind Press
QNH
hPa
Press
MSL
hPa
Rain
since 9 am
mm
Dir
 
Spd
km/h
Gust
km/h
Spd
kts
Gust
kts
02/04:00pm 23.2 - - - - ESE 15 19 8 10 1016.8 - -
02/03:30pm 23.2 - - - - ESE 15 19 8 10 1016.5 - -
02/03:26pm 23.2 - - - - ESE 15 - 8 - - 1016.6 -
02/03:00pm 23.0 - - - - ESE 15 17 8 9 1016.5 - -
02/02:30pm 23.2 - - - - ESE 15 19 8 10 1016.6 - -
02/02:26pm 23.0 - - - - ESE 15 - 8 - - 1016.8 -
02/02:00pm 23.1 - - - - ESE 15 19 8 10 1016.8 - -
02/01:30pm 23.1 - - - - ESE 15 19 8 10 1016.9 - -
02/01:26pm 23.0 - - - - ESE 15 - 8 - - 1017.0 -
02/01:00pm 23.0 - - - - ESE 17 20 9 11 1017.1 - -
02/12:30pm 22.9 - - - - SE 17 20 9 11 1017.5 - -
02/12:26pm 22.8 - - - - SE 17 - 9 - - 1017.6 -
02/12:00pm 23.0 - - - - SE 17 20 9 11 1017.8 - -
02/11:30am 22.9 - - - - SE 17 20 9 11 1018.2 - -
02/11:26am 22.6 - - - - SE 19 - 10 - - 1018.4 -
02/11:00am 22.9 - - - - SE 17 20 9 11 1018.5 - -
02/10:30am 22.9 - - - - SE 15 17 8 9 1018.7 - -
02/10:26am 22.9 - - - - SE 15 - 8 - - 1018.8 -
02/10:00am 23.0 - - - - SE 17 20 9 11 1018.9 - -
02/09:30am 22.7 - - - - SE 15 17 8 9 1018.8 - -
02/09:26am 22.6 - - - - SE 15 - 8 - - 1018.8 -
02/09:00am 22.6 - - - - SE 13 17 7 9 1018.7 - -
02/08:30am 22.4 - - - - ESE 15 19 8 10 1018.8 - -
02/08:26am 22.4 - - - - ESE 15 - 8 - - 1019.0 -
02/08:00am 22.3 - - - - ESE 15 19 8 10 1018.8 - -
02/07:30am 22.2 - - - - ESE 15 17 8 9 1018.5 - -
02/07:26am 22.6 - - - - ESE 13 - 7 - - 1018.6 -
02/07:00am 22.3 - - - - E 9 11 5 6 1018.0 - -
02/06:30am 22.1 - - - - ESE 7 9 4 5 1017.7 - -
02/06:26am 22.0 - - - - E 6 - 3 - - 1017.7 -
02/06:00am 21.6 - - - - NNE 0 0 0 0 1016.9 - -
02/05:30am 21.5 - - - - N 6 7 3 4 1016.5 - -
02/05:26am 21.5 - - - - NNW 6 - 3 - - 1016.4 -
02/05:00am 21.5 - - - - N 7 13 4 7 1016.3 - -
02/04:30am 21.7 - - - - N 20 24 11 13 1015.3 - -
02/04:26am 21.6 - - - - N 20 - 11 - - 1015.3 -
02/04:00am 21.5 - - - - N 19 22 10 12 1015.1 - -
02/03:30am 21.5 - - - - N 20 24 11 13 1014.9 - -
02/03:26am 21.5 - - - - N 20 - 11 - - 1015.0 -
02/03:00am 21.5 - - - - N 19 22 10 12 1014.9 - -
02/02:30am 21.5 - - - - N 19 20 10 11 1015.0 - -
02/02:26am 21.5 - - - - N 19 - 10 - - 1015.1 -
02/02:00am 21.5 - - - - N 19 20 10 11 1015.1 - -
02/01:30am 21.5 - - - - N 17 20 9 11 1015.4 - -
02/01:26am 21.6 - - - - N 15 - 8 - - 1015.5 -
02/01:00am 21.5 - - - - N 15 17 8 9 1015.6 - -
02/12:30am 21.4 - - - - N 13 17 7 9 1015.8 - -
02/12:26am 21.4 - - - - NNE 13 - 7 - - 1016.0 -
02/12:00am 21.4 - - - - NNE 13 17 7 9 1016.0 - -
 
Date/Time
EST
Temp
°C
App
Temp
°C
Dew
Point
Rel
Hum
%
Delta-T
°C
Wind Press
QNH
hPa
Press
MSL
hPa
Rain
since 9 am
mm
Dir
 
Spd
km/h
Gust
km/h
Spd
kts
Gust
kts
01/11:30pm 21.4 - - - - NNE 7 9 4 5 1016.4 - -
01/11:26pm 21.4 - - - - NE 7 - 4 - - 1016.5 -
01/11:00pm 21.5 - - - - NE 7 11 4 6 1016.3 - -
01/10:30pm 21.5 - - - - ENE 9 11 5 6 1016.4 - -
01/10:26pm 21.5 - - - - ENE 9 - 5 - - 1016.5 -
01/10:00pm 21.5 - - - - E 7 9 4 5 1016.5 - -
01/09:30pm 21.6 - - - - NE 9 11 5 6 1016.4 - -
01/09:26pm 21.5 - - - - NE 9 - 5 - - 1016.5 -
01/09:00pm 21.6 - - - - NE 11 15 6 8 1016.1 - -
01/08:30pm 21.4 - - - - E 9 13 5 7 1016.4 - -
01/08:26pm 21.5 - - - - E 9 - 5 - - 1016.5 -
01/08:00pm 21.4 - - - - ESE 7 11 4 6 1016.5 - -
01/07:30pm 21.6 - - - - SE 11 13 6 7 1016.5 - -
01/07:26pm 21.6 - - - - SE 11 - 6 - - 1016.5 -
01/07:00pm 21.6 - - - - ESE 9 13 5 7 1016.3 - -
01/06:30pm 21.7 - - - - SSE 11 15 6 8 1016.2 - -
01/06:26pm 21.8 - - - - SSE 11 - 6 - - 1016.3 -
01/06:00pm 21.9 - - - - SE 9 13 5 7 1016.1 - -
01/05:30pm 22.1 - - - - SSW 9 13 5 7 1016.1 - -
01/05:26pm 22.2 - - - - SW 7 - 4 - - 1016.1 -
01/05:00pm 22.7 - - - - WNW 2 9 1 5 1015.8 - -
01/04:30pm 23.0 - - - - WNW 4 7 2 4 1015.7 - -
01/04:26pm 23.1 - - - - WNW 6 - 3 - - 1015.7 -
01/04:00pm 23.1 - - - - CALM 0 0 0 0 1015.5 - -
01/03:30pm 22.5 - - - - WNW 2 7 1 4 1015.6 - -
01/03:26pm 22.6 - - - - WNW 4 - 2 - - 1015.7 -
01/03:00pm 22.7 - - - - NW 6 7 3 4 1015.8 - -
01/02:30pm 24.5 - - - - NNE 2 7 1 4 1016.1 - -
01/02:26pm 24.6 - - - - NE 4 - 2 - - 1016.2 -
01/02:00pm 24.0 - - - - N 2 7 1 4 1016.4 - -
01/01:30pm 24.1 - - - - CALM 0 6 0 3 1016.6 - -
01/01:26pm 23.7 - - - - CALM 0 - 0 - - 1016.7 -
01/01:00pm 23.0 - - - - ENE 6 7 3 4 1016.9 - -
01/12:30pm 22.6 - - - - NE 6 9 3 5 1017.4 - -
01/12:26pm 22.4 - - - - NE 7 - 4 - - 1017.6 -
01/12:00pm 22.3 - - - - NE 7 11 4 6 1017.9 - -
01/11:30am 22.3 - - - - ENE 9 11 5 6 1018.4 - -
01/11:26am 22.3 - - - - ENE 9 - 5 - - 1018.5 -
01/11:00am 22.2 - - - - ENE 11 15 6 8 1018.6 - -
01/10:30am 22.3 - - - - NE 13 15 7 8 1019.0 - -
01/10:26am 22.3 - - - - NE 13 - 7 - - 1019.1 -
01/10:00am 22.4 - - - - NE 13 15 7 8 1019.1 - -
01/09:30am 22.8 - - - - NE 9 11 5 6 1019.1 - -
01/09:26am 22.6 - - - - NE 9 - 5 - - 1019.2 -
01/09:00am 22.3 - - - - ENE 11 15 6 8 1019.1 - -
01/08:30am 22.9 - - - - E 11 13 6 7 1019.2 - -
01/08:26am 22.9 - - - - E 11 - 6 - - 1019.3 -
01/08:00am 22.6 - - - - E 13 15 7 8 1019.1 - -
01/07:30am 22.5 - - - - E 17 19 9 10 1019.0 - -
01/07:26am 22.4 - - - - E 17 - 9 - - 1019.0 -
01/07:00am 22.2 - - - - ENE 15 17 8 9 1018.7 - -
01/06:30am 22.1 - - - - SE 13 22 7 12 1018.5 - -
01/06:26am 22.1 - - - - SE 13 - 7 - - 1018.6 -
01/06:00am 21.7 - - - - SSE 13 15 7 8 1018.3 - -
01/05:30am 21.4 - - - - SSE 11 13 6 7 1018.0 - -
01/05:26am 21.5 - - - - SE 9 - 5 - - 1018.1 -
01/05:00am 21.6 - - - - ESE 9 11 5 6 1017.9 - -
01/04:30am 21.7 - - - - E 9 13 5 7 1017.8 - -
01/04:26am 21.9 - - - - E 9 - 5 - - 1017.9 -
01/04:00am 22.0 - - - - NE 17 26 9 14 1017.7 - -
01/03:30am 22.0 - - - - E 15 22 8 12 1017.6 - -
01/03:26am 21.9 - - - - ESE 13 - 7 - - 1017.7 -
01/03:00am 21.9 - - - - E 15 17 8 9 1017.8 - -
01/02:30am 22.1 - - - - ENE 11 17 6 9 1017.8 - -
01/02:26am 22.1 - - - - ENE 13 - 7 - - 1018.0 -
01/02:00am 22.2 - - - - ENE 20 32 11 17 1018.1 - -
01/01:30am 22.0 - - - - NE 9 13 5 7 1018.4 - -
01/01:26am 22.0 - - - - NE 7 - 4 - - 1018.5 -
01/01:00am 22.0 - - - - NE 13 15 7 8 1018.6 - -
01/12:30am 21.8 - - - - E 15 19 8 10 1018.9 - -
01/12:26am 21.9 - - - - E 15 - 8 - - 1019.0 -
01/12:00am 22.0 - - - - ENE 15 22 8 12 1019.1 - -
 
Date/Time
EST
Temp
°C
App
Temp
°C
Dew
Point
Rel
Hum
%
Delta-T
°C
Wind Press
QNH
hPa
Press
MSL
hPa
Rain
since 9 am
mm
Dir
 
Spd
km/h
Gust
km/h
Spd
kts
Gust
kts
30/11:30pm 22.1 - - - - ENE 20 26 11 14 1019.2 - -
30/11:26pm 22.0 - - - - ENE 22 - 12 - - 1019.3 -
30/11:00pm 22.2 - - - - E 17 20 9 11 1019.4 - -
30/10:30pm 22.0 - - - - E 22 26 12 14 1019.3 - -
30/10:26pm 22.0 - - - - ENE 22 - 12 - - 1019.4 -
30/10:00pm 22.1 - - - - ENE 20 24 11 13 1019.4 - -
30/09:30pm 22.0 - - - - ENE 15 20 8 11 1019.4 - -
30/09:26pm 22.0 - - - - ENE 15 - 8 - - 1019.5 -
30/09:00pm 22.0 - - - - E 17 20 9 11 1019.4 - -
30/08:30pm 22.1 - - - - E 20 24 11 13 1019.3 - -
30/08:26pm 22.0 - - - - E 19 - 10 - - 1019.4 -
30/08:00pm 22.0 - - - - E 24 26 13 14 1019.1 - -
30/07:30pm 22.0 - - - - E 20 28 11 15 1018.6 - -
30/07:26pm 22.0 - - - - E 19 - 10 - - 1018.7 -
30/07:00pm 21.9 - - - - ESE 20 26 11 14 1018.4 - -
30/06:30pm 21.9 - - - - ESE 19 22 10 12 1018.1 - -
30/06:26pm 21.9 - - - - ESE 20 - 11 - - 1018.1 -
30/06:00pm 22.0 - - - - ESE 20 30 11 16 1017.8 - -
30/05:30pm 22.3 - - - - ESE 19 22 10 12 1017.6 - -
30/05:26pm 22.2 - - - - E 20 - 11 - - 1017.7 -
30/05:00pm 22.5 - - - - SE 19 22 10 12 1017.4 - -
30/04:30pm 22.4 - - - - SE 19 22 10 12 1017.4 - -
30/04:26pm 22.5 - - - - SE 19 - 10 - - 1017.5 -
30/04:00pm 22.4 - - - - SE 19 22 10 12 1017.3 - -
30/03:30pm 22.5 - - - - SE 20 24 11 13 1017.3 - -
30/03:26pm 22.5 - - - - SE 19 - 10 - - 1017.4 -
30/03:00pm 22.7 - - - - SE 19 24 10 13 1017.4 - -
30/02:30pm 22.9 - - - - SE 13 17 7 9 1017.6 - -
30/02:26pm 22.9 - - - - SE 13 - 7 - - 1017.7 -
30/02:00pm 22.8 - - - - SE 15 17 8 9 1017.8 - -
30/01:30pm 22.8 - - - - SE 15 19 8 10 1018.1 - -
30/01:26pm 22.8 - - - - SE 15 - 8 - - 1018.3 -
30/01:00pm 22.7 - - - - ESE 15 19 8 10 1018.4 - -
30/12:30pm 22.7 - - - - E 15 17 8 9 1019.0 - -
30/12:26pm 22.7 - - - - E 13 - 7 - - 1019.1 -
30/12:00pm 22.6 - - - - E 15 17 8 9 1019.4 - -
30/11:30am 22.5 - - - - E 15 19 8 10 1019.9 - -
30/11:26am 22.3 - - - - E 15 - 8 - - 1020.0 -
30/11:00am 22.1 - - - - E 15 19 8 10 1020.2 - -
30/10:30am 22.2 - - - - E 17 20 9 11 1020.5 - -
30/10:26am 22.1 - - - - E 17 - 9 - - 1020.6 -
30/10:00am 22.0 - - - - ENE 19 20 10 11 1020.7 - -
30/09:30am 21.8 - - - - ENE 17 20 9 11 1020.8 - -
30/09:26am 21.8 - - - - ENE 19 - 10 - - 1020.9 -
30/09:00am 21.8 - - - - ENE 20 24 11 13 1020.8 - -
30/08:30am 21.8 - - - - ENE 22 28 12 15 1020.7 - -
30/08:26am 21.7 - - - - ENE 24 - 13 - - 1020.8 -
30/08:00am 21.8 - - - - ENE 26 30 14 16 1020.4 - -
30/07:30am 21.9 - - - - ENE 24 28 13 15 1020.1 - -
30/07:26am 21.8 - - - - ENE 26 - 14 - - 1020.2 -
30/07:00am 22.0 - - - - E 20 24 11 13 1019.8 - -
30/06:30am 21.9 - - - - E 24 30 13 16 1019.5 - -
30/06:26am 21.9 - - - - E 26 - 14 - - 1019.6 -
30/06:00am 21.7 - - - - E 30 35 16 19 1019.2 - -
30/05:30am 21.7 - - - - E 22 26 12 14 1018.9 - -
30/05:26am 21.8 - - - - E 24 - 13 - - 1019.0 -
30/05:00am 21.7 - - - - E 30 33 16 18 1018.6 - -
30/04:30am 22.0 - - - - E 22 28 12 15 1018.3 - -
30/04:26am 21.9 - - - - ENE 22 - 12 - - 1018.4 -
30/04:00am 21.9 - - - - ENE 22 28 12 15 1018.1 - -
30/03:30am 21.7 - - - - ENE 17 20 9 11 1018.0 - -
30/03:26am 21.7 - - - - ENE 17 - 9 - - 1018.1 -
30/03:00am 21.6 - - - - ENE 17 20 9 11 1017.9 - -
30/02:30am 21.6 - - - - ENE 20 24 11 13 1018.1 - -
30/02:26am 21.6 - - - - ENE 22 - 12 - - 1018.3 -
30/02:00am 21.7 - - - - ENE 26 30 14 16 1018.3 - -
30/01:30am 21.8 - - - - E 28 33 15 18 1018.4 - -
30/01:26am 21.7 - - - - E 26 - 14 - - 1018.4 -
30/01:00am 21.9 - - - - E 26 32 14 17 1018.5 - -
30/12:30am 22.1 - - - - E 30 35 16 19 1018.7 - -
30/12:26am 22.1 - - - - E 32 - 17 - - 1018.8 -
30/12:00am 22.1 - - - - E 26 28 14 15 1018.9 - -
 
Date/Time
EST
Temp
°C
App
Temp
°C
Dew
Point
Rel
Hum
%
Delta-T
°C
Wind Press
QNH
hPa
Press
MSL
hPa
Rain
since 9 am
mm
Dir
 
Spd
km/h
Gust
km/h
Spd
kts
Gust
kts
29/11:30pm 22.2 - - - - E 26 32 14 17 1019.2 - -
29/11:26pm 22.1 - - - - E 28 - 15 - - 1019.3 -
29/11:00pm 21.8 - - - - ESE 32 39 17 21 1019.4 - -
29/10:30pm 21.7 - - - - ESE 32 35 17 19 1019.5 - -
29/10:26pm 21.8 - - - - ESE 32 - 17 - - 1019.5 -
29/10:00pm 21.8 - - - - ESE 32 35 17 19 1019.4 - -
29/09:30pm 21.8 - - - - ESE 32 35 17 19 1019.4 - -
29/09:26pm 21.7 - - - - ESE 30 - 16 - - 1019.6 -
29/09:00pm 21.7 - - - - ESE 30 35 16 19 1019.4 - -
29/08:30pm 22.0 - - - - ESE 24 28 13 15 1019.3 - -
29/08:26pm 22.1 - - - - ESE 24 - 13 - - 1019.4 -
29/08:00pm 22.0 - - - - SE 24 30 13 16 1019.0 - -
29/07:30pm 21.9 - - - - SE 26 30 14 16 1018.8 - -
29/07:26pm 21.8 - - - - SE 28 - 15 - - 1018.9 -
29/07:00pm 21.9 - - - - ESE 30 33 16 18 1018.6 - -
29/06:30pm 21.8 - - - - SE 30 35 16 19 1018.2 - -
29/06:26pm 21.9 - - - - SE 30 - 16 - - 1018.2 -
29/06:00pm 21.9 - - - - ESE 28 33 15 18 1017.8 - -
29/05:30pm 21.8 - - - - SE 28 32 15 17 1017.3 - -
29/05:26pm 21.9 - - - - SE 28 - 15 - - 1017.4 -
29/05:00pm 22.1 - - - - SE 28 33 15 18 1017.1 - -
29/04:30pm 22.1 - - - - SE 28 32 15 17 1016.7 - -
29/04:26pm 22.1 - - - - SE 28 - 15 - - 1016.8 -

Other Formats:

Comma delimited format used in spreadsheet applications
http://www.bom.gov.au/fwo/IDQ60801/IDQ60801.94379.axf

JavaScript Object Notation format (JSON) in row-major order
http://www.bom.gov.au/fwo/IDQ60801/IDQ60801.94379.json